Aleknagik, Alaska
Current Conditions -  °F | °C
As of 11:16 PM on Monday 20 Oct 2014 (Local Time) from PADL Reporting Station
Overcast Overcast  
Wind Chill: -5°   Ceiling: 5000
Heat Index: -2°   Visibility: 10mi
Dew Point: -3°   Wind: 5mph
Humidity: 93%   Direction: 350°N
Pressure: 29.18"   Gusts: NA
Location:  59.27°N, 158.62°W
Report Text: PADL 210716Z 35004KT 10SM OVC050 M02/M03 A2918 RMK AO1
Loading
Personal Weather Stations






























Interactive Weather Map
Tropical Storm Tracking
New forecast layout! Learn more

10-Day Weather Forecast

Advertisements
Track Severe Weather on mobile